createdAt,value
2018-07-27T00:02:25.228Z,6.13
2018-07-27T00:04:55.721Z,5.67
2018-07-27T00:07:26.023Z,5.90
2018-07-27T00:09:57.272Z,6.00
2018-07-27T00:12:28.164Z,6.13
2018-07-27T00:14:58.970Z,5.43
2018-07-27T00:17:29.596Z,6.30
2018-07-27T00:20:00.928Z,6.37
2018-07-27T00:22:31.573Z,5.43
2018-07-27T00:25:02.088Z,5.70
2018-07-27T00:27:32.674Z,5.63
2018-07-27T00:30:03.785Z,6.00
2018-07-27T00:32:34.466Z,6.10
2018-07-27T00:35:05.241Z,5.93
2018-07-27T00:37:36.347Z,6.07
2018-07-27T00:40:07.101Z,6.30
2018-07-27T00:42:37.670Z,5.63
2018-07-27T00:45:08.480Z,5.73
2018-07-27T00:47:38.991Z,5.97
2018-07-27T00:50:09.206Z,6.13
2018-07-27T00:52:39.495Z,6.07
2018-07-27T00:55:10.401Z,6.27
2018-07-27T00:57:40.970Z,6.27
2018-07-27T01:00:11.858Z,6.03
2018-07-27T01:02:42.839Z,6.17
2018-07-27T01:05:14.664Z,6.30
2018-07-27T01:07:45.201Z,5.97
2018-07-27T01:10:15.788Z,6.30
2018-07-27T01:12:46.381Z,6.23
2018-07-27T01:15:17.206Z,5.83
2018-07-27T01:17:47.847Z,6.47
2018-07-27T01:20:18.425Z,6.30
2018-07-27T01:22:48.952Z,5.43
2018-07-27T01:25:19.488Z,6.20
2018-07-27T01:27:50.034Z,6.33
2018-07-27T01:30:20.698Z,5.70
2018-07-27T01:32:51.235Z,5.57
2018-07-27T01:35:21.686Z,6.17
2018-07-27T01:37:51.973Z,6.40
2018-07-27T01:40:22.256Z,5.60
2018-07-27T01:42:52.300Z,7.00
2018-07-27T01:45:23.062Z,6.73
2018-07-27T01:47:54.917Z,6.23
2018-07-27T01:50:25.129Z,6.30
2018-07-27T01:52:55.521Z,5.93
2018-07-27T01:55:26.106Z,6.70
2018-07-27T01:57:57.090Z,6.57
2018-07-27T02:00:27.282Z,6.47
2018-07-27T02:02:57.551Z,6.70
2018-07-27T02:05:27.966Z,6.73
2018-07-27T02:07:57.813Z,6.27
2018-07-27T02:10:27.956Z,6.87
2018-07-27T02:12:58.799Z,6.87
2018-07-27T02:15:28.687Z,6.90
2018-07-27T02:17:58.762Z,7.00
2018-07-27T02:20:29.431Z,6.40
2018-07-27T02:22:59.694Z,6.90
2018-07-27T02:25:30.180Z,6.90
2018-07-27T02:28:00.646Z,6.80
2018-07-27T02:30:31.362Z,7.10
2018-07-27T02:33:01.682Z,6.70
2018-07-27T02:35:32.012Z,7.60
2018-07-27T02:38:02.600Z,6.67
2018-07-27T02:40:33.059Z,7.37
2018-07-27T02:43:03.422Z,7.70
2018-07-27T02:45:34.213Z,6.93
2018-07-27T02:48:04.562Z,7.40
2018-07-27T02:50:34.833Z,7.33
2018-07-27T02:53:05.375Z,6.90
2018-07-27T02:55:36.147Z,7.43
2018-07-27T02:58:06.353Z,7.00
2018-07-27T03:00:36.558Z,7.20
2018-07-27T03:03:06.886Z,7.47
2018-07-27T03:05:37.802Z,7.60
2018-07-27T03:08:08.363Z,6.87
2018-07-27T03:10:39.047Z,6.50
2018-07-27T03:13:09.366Z,6.93
2018-07-27T03:15:40.401Z,6.73
2018-07-27T03:18:10.671Z,7.10
2018-07-27T03:20:40.937Z,7.67
2018-07-27T03:23:11.729Z,7.20
2018-07-27T03:25:42.323Z,6.83
2018-07-27T03:28:12.622Z,7.07
2018-07-27T03:30:43.043Z,6.93
2018-07-27T03:33:13.413Z,6.93
2018-07-27T03:35:43.976Z,6.80
2018-07-27T03:38:14.475Z,7.90
2018-07-27T03:40:44.758Z,6.63
2018-07-27T03:43:15.066Z,6.80
2018-07-27T03:45:45.529Z,6.60
2018-07-27T03:48:16.355Z,7.27
2018-07-27T03:50:46.587Z,6.67
2018-07-27T03:53:16.870Z,6.57
2018-07-27T03:55:47.198Z,6.60
2018-07-27T03:58:18.124Z,6.87
2018-07-27T04:00:48.488Z,6.87
2018-07-27T04:03:18.810Z,7.00
2018-07-27T04:05:49.041Z,8.00
2018-07-27T04:08:19.849Z,6.73
2018-07-27T04:10:50.185Z,6.70
2018-07-27T04:13:20.306Z,6.70
2018-07-27T04:15:50.851Z,7.37
2018-07-27T04:18:21.468Z,6.67
2018-07-27T04:20:51.641Z,6.83
2018-07-27T04:23:22.166Z,8.10
2018-07-27T04:25:52.467Z,7.73
2018-07-27T04:28:22.659Z,7.27
2018-07-27T04:30:53.177Z,7.20
2018-07-27T04:33:23.466Z,7.93
2018-07-27T04:35:53.699Z,7.30
2018-07-27T04:38:23.961Z,7.00
2018-07-27T04:40:54.635Z,7.33
2018-07-27T04:43:25.042Z,6.80
2018-07-27T04:45:55.362Z,7.30
2018-07-27T04:48:25.688Z,7.37
2018-07-27T04:50:56.155Z,7.53
2018-07-27T04:53:26.688Z,7.50
2018-07-27T04:55:57.196Z,7.37
2018-07-27T04:58:27.598Z,7.60
2018-07-27T05:00:57.913Z,7.60
2018-07-27T05:03:28.202Z,7.57
2018-07-27T05:05:58.972Z,7.40
2018-07-27T05:08:29.438Z,7.43
2018-07-27T05:10:59.979Z,8.60
2018-07-27T05:13:30.306Z,8.17
2018-07-27T05:16:00.089Z,8.77
2018-07-27T05:18:30.426Z,8.40
2018-07-27T05:21:01.281Z,8.70
2018-07-27T05:23:31.686Z,8.27
2018-07-27T05:26:02.003Z,9.23
2018-07-27T05:28:32.106Z,8.13
2018-07-27T05:31:02.485Z,8.77
2018-07-27T05:33:33.097Z,8.53
2018-07-27T05:36:03.649Z,7.80
2018-07-27T05:38:34.015Z,8.47
2018-07-27T05:41:04.530Z,8.50
2018-07-27T05:43:35.262Z,8.47
2018-07-27T05:46:05.885Z,8.83
2018-07-27T05:48:36.294Z,8.43
2018-07-27T05:51:06.597Z,8.40
2018-07-27T05:53:37.910Z,7.80
2018-07-27T05:56:08.474Z,7.90
2018-07-27T05:58:38.810Z,7.60
2018-07-27T06:01:09.438Z,7.70
2018-07-27T06:03:39.907Z,8.13
2018-07-27T06:06:10.426Z,8.30
2018-07-27T06:08:41.391Z,7.30
2018-07-27T06:11:11.946Z,8.03
2018-07-27T06:13:42.113Z,8.27
2018-07-27T06:16:12.738Z,7.00
2018-07-27T06:18:43.685Z,7.37
2018-07-27T06:21:14.211Z,7.27
2018-07-27T06:23:44.687Z,7.93
2018-07-27T06:26:15.122Z,7.40
2018-07-27T06:28:45.470Z,7.40
2018-07-27T06:31:15.570Z,7.27
2018-07-27T06:33:46.019Z,6.80
2018-07-27T06:36:16.206Z,7.57
2018-07-27T06:38:46.462Z,7.73
2018-07-27T06:41:16.791Z,7.50
2018-07-27T06:43:47.545Z,7.30
2018-07-27T06:46:17.864Z,6.70
2018-07-27T06:48:48.651Z,6.80
2018-07-27T06:51:18.927Z,6.73
2018-07-27T06:53:49.690Z,8.00
2018-07-27T06:56:20.047Z,7.77
2018-07-27T06:58:50.897Z,7.63
2018-07-27T07:01:21.126Z,6.80
2018-07-27T07:03:51.526Z,7.13
2018-07-27T07:06:22.087Z,6.73
2018-07-27T07:08:52.831Z,7.17
2018-07-27T07:11:23.243Z,7.00
2018-07-27T07:13:53.707Z,7.00
2018-07-27T07:16:24.298Z,7.73
2018-07-27T07:18:55.003Z,7.47
2018-07-27T07:21:25.746Z,7.00
2018-07-27T07:23:55.909Z,7.17
2018-07-27T07:26:26.366Z,6.60
2018-07-27T07:28:57.094Z,7.23
2018-07-27T07:31:27.537Z,7.77
2018-07-27T07:33:58.518Z,6.90
2018-07-27T07:36:28.708Z,6.87
2018-07-27T07:38:59.461Z,7.53
2018-07-27T07:41:29.739Z,7.47
2018-07-27T07:44:00.130Z,7.53
2018-07-27T07:46:30.650Z,6.23
2018-07-27T07:49:05.901Z,6.67
2018-07-27T07:51:36.961Z,6.80
2018-07-27T07:54:07.136Z,7.27
2018-07-27T07:56:39.178Z,7.50
2018-07-27T07:59:09.194Z,7.70
2018-07-27T08:01:39.922Z,7.10
2018-07-27T08:04:10.183Z,6.50
2018-07-27T08:06:40.257Z,6.97
2018-07-27T08:09:10.569Z,7.13
2018-07-27T08:11:41.254Z,6.93
2018-07-27T08:14:11.675Z,6.93
2018-07-27T08:16:42.108Z,7.50
2018-07-27T08:19:12.447Z,7.10
2018-07-27T08:21:42.473Z,7.27
2018-07-27T08:24:12.838Z,7.60
2018-07-27T08:26:44.827Z,7.03
2018-07-27T08:29:16.627Z,7.50
2018-07-27T08:31:48.007Z,6.80
2018-07-27T08:34:19.376Z,7.40
2018-07-27T08:36:50.078Z,7.03
2018-07-27T08:39:21.626Z,7.17
2018-07-27T08:41:52.384Z,7.03
2018-07-27T08:44:24.373Z,8.10
2018-07-27T08:46:54.866Z,6.90
2018-07-27T08:49:25.338Z,7.20
2018-07-27T08:51:55.571Z,6.30
2018-07-27T08:54:26.101Z,6.60
2018-07-27T08:56:56.436Z,6.83
2018-07-27T08:59:26.693Z,7.00
2018-07-27T09:01:57.047Z,6.53
2018-07-27T09:04:27.404Z,7.40
2018-07-27T09:06:57.737Z,6.17
2018-07-27T09:09:28.086Z,6.90
2018-07-27T09:11:58.837Z,7.13
2018-07-27T09:14:29.277Z,7.33
2018-07-27T09:16:59.662Z,6.60
2018-07-27T09:19:29.925Z,5.97
2018-07-27T09:22:00.470Z,6.70
2018-07-27T09:24:31.028Z,6.30
2018-07-27T09:27:01.324Z,5.67
2018-07-27T09:29:32.049Z,5.30
2018-07-27T09:32:02.588Z,5.63
2018-07-27T09:34:32.586Z,5.20
2018-07-27T09:37:03.174Z,5.30
2018-07-27T09:39:33.581Z,5.73
2018-07-27T09:42:03.965Z,5.60
2018-07-27T09:44:34.385Z,5.23
2018-07-27T09:47:05.366Z,5.37
2018-07-27T09:49:35.390Z,5.20
2018-07-27T09:52:05.194Z,6.43
2018-07-27T09:54:35.877Z,6.00
2018-07-27T09:57:06.502Z,5.10
2018-07-27T09:59:36.895Z,4.80
2018-07-27T10:02:06.868Z,4.70
2018-07-27T10:04:37.175Z,5.13
2018-07-27T10:07:07.915Z,5.57
2018-07-27T10:09:38.315Z,5.83
2018-07-27T10:12:08.822Z,5.97
2018-07-27T10:14:39.339Z,5.20
2018-07-27T10:17:09.676Z,5.10
2018-07-27T10:19:39.872Z,5.10
2018-07-27T10:22:10.374Z,4.47
2018-07-27T10:24:40.866Z,5.10
2018-07-27T10:27:10.691Z,5.10
2018-07-27T10:29:40.779Z,4.53
2018-07-27T10:32:10.814Z,4.90
2018-07-27T10:34:42.445Z,5.10
2018-07-27T10:37:12.758Z,4.50
2018-07-27T10:39:43.347Z,4.60
2018-07-27T10:42:13.722Z,4.07
2018-07-27T10:44:43.867Z,4.60
2018-07-27T10:47:13.999Z,4.13
2018-07-27T10:49:44.306Z,4.40
2018-07-27T10:52:14.626Z,4.63
2018-07-27T10:54:45.142Z,4.60
2018-07-27T10:57:16.218Z,5.30
2018-07-27T10:59:47.654Z,4.80
2018-07-27T11:02:17.989Z,4.63
2018-07-27T11:04:52.042Z,4.20
2018-07-27T11:07:22.454Z,4.30
2018-07-27T11:09:52.427Z,4.30
2018-07-27T11:12:22.762Z,4.30
2018-07-27T11:14:53.131Z,3.77
2018-07-27T11:17:23.623Z,4.10
2018-07-27T11:19:54.986Z,3.97
2018-07-27T11:22:25.327Z,3.93
2018-07-27T11:24:55.807Z,4.03
2018-07-27T11:27:26.075Z,4.13
2018-07-27T11:29:56.702Z,3.70
2018-07-27T11:32:27.593Z,3.67
2018-07-27T11:34:58.570Z,3.90
2018-07-27T11:37:28.817Z,3.60
2018-07-27T11:39:58.544Z,3.30
2018-07-27T11:42:28.761Z,3.33
2018-07-27T11:44:58.963Z,3.50
2018-07-27T11:47:29.410Z,3.00
2018-07-27T11:49:59.965Z,3.33
2018-07-27T11:52:30.487Z,2.97
2018-07-27T11:55:00.579Z,3.70
2018-07-27T11:57:31.048Z,3.20
2018-07-27T12:00:01.498Z,3.47
2018-07-27T12:02:31.968Z,3.37
2018-07-27T12:05:02.414Z,3.30
2018-07-27T12:07:33.231Z,3.27
2018-07-27T12:10:04.059Z,3.40
2018-07-27T12:12:34.583Z,2.90
2018-07-27T12:15:05.147Z,3.43
2018-07-27T12:17:35.601Z,3.10
2018-07-27T12:20:06.388Z,2.80
2018-07-27T12:22:36.786Z,2.90
2018-07-27T12:25:07.369Z,3.03
2018-07-27T12:27:38.282Z,2.90
2018-07-27T12:30:08.622Z,2.70
2018-07-27T12:32:39.135Z,2.80
2018-07-27T12:35:09.862Z,2.90
2018-07-27T12:37:40.276Z,2.67
2018-07-27T12:40:10.826Z,2.70
2018-07-27T12:42:41.501Z,2.60
2018-07-27T12:45:11.972Z,2.80
2018-07-27T12:47:42.707Z,3.30
2018-07-27T12:50:21.059Z,2.80
2018-07-27T12:52:54.593Z,3.20
2018-07-27T12:55:27.150Z,3.07
2018-07-27T12:57:58.198Z,3.27
2018-07-27T13:00:28.710Z,2.80
2018-07-27T13:02:59.108Z,2.73
2018-07-27T13:05:30.095Z,2.90
2018-07-27T13:08:04.422Z,3.53
2018-07-27T13:10:35.097Z,3.40
2018-07-27T13:13:05.806Z,3.07
2018-07-27T13:15:36.158Z,2.90
2018-07-27T13:18:06.650Z,3.60
2018-07-27T13:20:48.771Z,3.60
2018-07-27T13:23:19.875Z,3.00
2018-07-27T13:26:25.027Z,2.87
2018-07-27T13:28:41.252Z,3.20
2018-07-27T13:31:12.430Z,3.40
2018-07-27T13:33:57.994Z,3.20
2018-07-27T13:36:28.626Z,2.80
2018-07-27T13:38:59.206Z,2.53
2018-07-27T13:41:30.235Z,3.43
2018-07-27T13:44:00.753Z,2.60
2018-07-27T13:46:32.503Z,2.63
2018-07-27T13:49:02.906Z,3.20
2018-07-27T13:51:33.206Z,2.63
2018-07-27T13:54:05.078Z,3.00
2018-07-27T13:56:36.034Z,2.93
2018-07-27T13:59:06.192Z,3.50
2018-07-27T14:01:37.250Z,3.30
2018-07-27T14:04:07.689Z,3.43
2018-07-27T14:06:38.018Z,3.50
2018-07-27T14:09:10.631Z,3.20
2018-07-27T14:11:42.107Z,3.20
2018-07-27T14:14:13.026Z,3.40
2018-07-27T14:16:43.622Z,3.43
2018-07-27T14:19:15.043Z,3.93
2018-07-27T14:21:45.125Z,4.10
2018-07-27T14:24:15.254Z,3.73
2018-07-27T14:26:45.461Z,3.67
2018-07-27T14:29:15.298Z,3.90
2018-07-27T14:31:45.525Z,4.00
2018-07-27T14:34:17.138Z,4.00
2018-07-27T14:36:47.525Z,3.80
2018-07-27T14:39:17.926Z,4.10
2018-07-27T14:41:48.198Z,3.80
2018-07-27T14:44:18.996Z,3.90
2018-07-27T14:46:49.755Z,3.43
2018-07-27T14:49:20.216Z,3.60
2018-07-27T14:51:50.698Z,3.43
2018-07-27T14:54:20.926Z,3.50
2018-07-27T14:56:51.018Z,3.90
2018-07-27T14:59:21.770Z,4.30
2018-07-27T15:01:52.229Z,4.10
2018-07-27T15:04:22.638Z,3.63
2018-07-27T15:06:52.859Z,4.00
2018-07-27T15:09:23.661Z,3.73
2018-07-27T15:11:54.058Z,3.73
2018-07-27T15:14:24.859Z,3.70
2018-07-27T15:16:55.410Z,3.70
2018-07-27T15:19:25.675Z,3.40
2018-07-27T15:21:56.413Z,3.43
2018-07-27T15:24:26.480Z,3.63
2018-07-27T15:26:57.102Z,4.00
2018-07-27T15:29:27.398Z,3.37
2018-07-27T15:31:57.975Z,3.53
2018-07-27T15:34:29.934Z,3.70
2018-07-27T15:37:00.564Z,3.40
2018-07-27T15:39:31.010Z,4.07
2018-07-27T15:42:01.484Z,3.73
2018-07-27T15:44:33.165Z,3.50
2018-07-27T15:47:04.006Z,3.40
2018-07-27T15:49:34.409Z,3.80
2018-07-27T15:52:04.476Z,3.77
2018-07-27T15:54:35.107Z,3.77
2018-07-27T15:57:05.957Z,4.23
2018-07-27T15:59:36.436Z,3.70
2018-07-27T16:02:07.416Z,3.77
2018-07-27T16:04:47.475Z,3.90
2018-07-27T16:07:22.150Z,4.20
2018-07-27T16:09:52.931Z,3.83
2018-07-27T16:12:38.886Z,4.63
2018-07-27T16:15:26.052Z,4.90
2018-07-27T16:18:10.966Z,4.60
2018-07-27T16:20:55.944Z,4.77
2018-07-27T16:23:27.090Z,4.87
2018-07-27T16:25:57.474Z,4.83
2018-07-27T16:28:27.911Z,5.10
2018-07-27T16:30:58.474Z,5.07
2018-07-27T16:33:29.226Z,5.67
2018-07-27T16:36:05.740Z,4.93
2018-07-27T16:38:36.258Z,4.80
2018-07-27T16:41:07.247Z,5.57
2018-07-27T16:43:37.560Z,5.97
2018-07-27T16:46:08.030Z,5.30
2018-07-27T16:48:39.071Z,5.47
2018-07-27T16:51:09.413Z,5.40
2018-07-27T16:53:39.701Z,5.70
2018-07-27T16:56:10.597Z,5.23
2018-07-27T16:58:40.988Z,6.30
2018-07-27T17:01:11.471Z,6.07
2018-07-27T17:03:42.326Z,5.93
2018-07-27T17:06:12.565Z,6.20
2018-07-27T17:08:42.601Z,5.67
2018-07-27T17:11:12.987Z,6.33
2018-07-27T17:13:43.882Z,5.70
2018-07-27T17:16:14.457Z,6.20
2018-07-27T17:18:45.038Z,5.47
2018-07-27T17:21:15.845Z,5.33
2018-07-27T17:23:46.366Z,5.90
2018-07-27T17:26:16.928Z,5.90
2018-07-27T17:28:47.529Z,6.03
2018-07-27T17:31:17.803Z,6.00
2018-07-27T17:33:48.375Z,6.40
2018-07-27T17:36:19.194Z,6.80
2018-07-27T17:38:50.265Z,6.10
2018-07-27T17:41:20.708Z,6.20
2018-07-27T17:43:51.510Z,6.37
2018-07-27T17:46:21.849Z,6.23
2018-07-27T17:48:52.641Z,6.13
2018-07-27T17:51:23.134Z,6.07
2018-07-27T17:53:54.102Z,6.53
2018-07-27T17:56:24.631Z,6.60
2018-07-27T17:58:55.630Z,6.70
2018-07-27T18:01:26.418Z,7.80
2018-07-27T18:03:56.873Z,7.70
2018-07-27T18:06:27.213Z,7.30
2018-07-27T18:08:57.938Z,6.60
2018-07-27T18:11:28.554Z,6.57
2018-07-27T18:13:59.033Z,6.53
2018-07-27T18:16:29.275Z,6.67
2018-07-27T18:18:59.588Z,6.40
2018-07-27T18:21:30.098Z,6.60
2018-07-27T18:24:00.338Z,6.77
2018-07-27T18:26:30.641Z,6.40
2018-07-27T18:29:01.567Z,7.07
2018-07-27T18:31:32.102Z,6.77
2018-07-27T18:34:02.414Z,6.93
2018-07-27T18:36:33.016Z,7.63
2018-07-27T18:39:03.601Z,6.87
2018-07-27T18:41:34.090Z,6.70
2018-07-27T18:44:04.651Z,7.27
2018-07-27T18:46:35.478Z,7.07
2018-07-27T18:49:05.850Z,8.03
2018-07-27T18:51:36.113Z,13.70
2018-07-27T18:54:06.638Z,9.50
2018-07-27T18:56:36.944Z,8.37
2018-07-27T18:59:07.767Z,7.70
2018-07-27T19:01:38.546Z,7.33
2018-07-27T19:04:09.234Z,7.60
2018-07-27T19:06:39.594Z,7.17
2018-07-27T19:09:12.603Z,7.70
2018-07-27T19:11:43.258Z,7.20
2018-07-27T19:14:13.825Z,7.33
2018-07-27T19:16:44.343Z,7.03
2018-07-27T19:19:15.058Z,7.33
2018-07-27T19:21:46.774Z,7.10
2018-07-27T19:24:17.118Z,7.27
2018-07-27T19:26:47.931Z,7.40
2018-07-27T19:29:18.977Z,7.23
2018-07-27T19:31:50.039Z,6.83
2018-07-27T19:34:20.526Z,7.77
2018-07-27T19:36:51.276Z,6.90
2018-07-27T19:39:22.007Z,7.70
2018-07-27T19:41:52.375Z,8.10
2018-07-27T19:44:23.238Z,7.70
2018-07-27T19:46:53.800Z,8.00
2018-07-27T19:49:25.090Z,7.93
2018-07-27T19:51:55.600Z,8.43
2018-07-27T19:54:26.169Z,7.80
2018-07-27T19:56:57.040Z,8.50
2018-07-27T19:59:28.000Z,7.77
2018-07-27T20:01:59.658Z,8.00
2018-07-27T20:04:29.952Z,8.23
2018-07-27T20:07:02.127Z,7.10
2018-07-27T20:09:33.606Z,8.13
2018-07-27T20:12:05.348Z,7.90
2018-07-27T20:14:38.453Z,8.03
2018-07-27T20:17:11.267Z,7.93
2018-07-27T20:19:43.018Z,7.73
2018-07-27T20:22:22.766Z,7.57
2018-07-27T20:25:07.882Z,7.60
2018-07-27T20:27:51.668Z,7.70
2018-07-27T20:30:23.730Z,8.00
2018-07-27T20:32:54.649Z,7.80
2018-07-27T20:35:26.096Z,8.50
2018-07-27T20:37:57.208Z,8.00
2018-07-27T20:40:28.938Z,8.27
2018-07-27T20:42:59.907Z,8.50
2018-07-27T20:45:30.378Z,8.37
2018-07-27T20:48:01.563Z,9.90
2018-07-27T20:50:32.576Z,7.80
2018-07-27T20:53:04.235Z,8.90
2018-07-27T20:55:35.252Z,8.30
2018-07-27T20:58:06.305Z,8.40
2018-07-27T21:00:37.534Z,8.07
2018-07-27T21:03:09.075Z,8.57
2018-07-27T21:05:40.014Z,8.10
2018-07-27T21:08:11.889Z,8.23
2018-07-27T21:10:42.621Z,9.13
2018-07-27T21:13:13.017Z,8.33
2018-07-27T21:15:43.937Z,9.43
2018-07-27T21:18:14.427Z,8.03
2018-07-27T21:20:44.882Z,9.20
2018-07-27T21:23:15.221Z,8.50
2018-07-27T21:25:45.570Z,8.53
2018-07-27T21:28:16.121Z,9.10
2018-07-27T21:30:46.802Z,9.20
2018-07-27T21:33:17.227Z,8.80
2018-07-27T21:35:47.762Z,9.17
2018-07-27T21:38:18.132Z,8.30
2018-07-27T21:40:48.693Z,9.60
2018-07-27T21:43:19.366Z,8.60
2018-07-27T21:45:49.744Z,9.53
2018-07-27T21:48:20.189Z,9.27
2018-07-27T21:50:50.702Z,9.00
2018-07-27T21:53:21.919Z,8.93
2018-07-27T21:55:52.403Z,9.50
2018-07-27T21:58:23.197Z,9.83
2018-07-27T22:00:53.718Z,9.30
2018-07-27T22:03:24.652Z,9.00
2018-07-27T22:05:55.088Z,9.60
2018-07-27T22:08:25.448Z,8.83
2018-07-27T22:10:56.070Z,8.33
2018-07-27T22:13:26.925Z,9.57
2018-07-27T22:15:57.538Z,9.10
2018-07-27T22:18:27.991Z,9.40
2018-07-27T22:20:58.319Z,9.30
2018-07-27T22:23:30.278Z,8.70
2018-07-27T22:26:01.307Z,9.03
2018-07-27T22:28:31.784Z,9.27
2018-07-27T22:31:02.116Z,8.77
2018-07-27T22:33:32.587Z,8.67
2018-07-27T22:36:02.977Z,8.93
2018-07-27T22:38:33.738Z,8.93
2018-07-27T22:41:04.002Z,9.13
2018-07-27T22:43:34.397Z,9.37
2018-07-27T22:46:05.074Z,8.40
2018-07-27T22:48:35.634Z,8.13
2018-07-27T22:51:05.890Z,9.70
2018-07-27T22:53:36.305Z,9.40
2018-07-27T22:56:06.955Z,8.90
2018-07-27T22:58:37.262Z,10.10
2018-07-27T23:01:07.768Z,10.50
2018-07-27T23:03:38.545Z,9.80
2018-07-27T23:06:08.906Z,9.93
2018-07-27T23:08:39.322Z,8.83
2018-07-27T23:11:09.990Z,9.40
2018-07-27T23:13:40.850Z,9.27
2018-07-27T23:16:11.201Z,9.53
2018-07-27T23:18:41.789Z,9.87
2018-07-27T23:21:12.706Z,9.20
2018-07-27T23:23:43.459Z,9.70
2018-07-27T23:26:14.070Z,9.03
2018-07-27T23:28:44.431Z,9.00
2018-07-27T23:31:14.948Z,9.10
2018-07-27T23:33:45.172Z,9.77
2018-07-27T23:36:15.903Z,9.60
2018-07-27T23:38:47.105Z,9.60
2018-07-27T23:41:17.418Z,9.30
2018-07-27T23:43:47.918Z,10.10
2018-07-27T23:46:18.165Z,9.30
2018-07-27T23:48:48.963Z,9.77
2018-07-27T23:51:19.470Z,10.30
2018-07-27T23:53:49.815Z,10.03
2018-07-27T23:56:20.360Z,10.43
2018-07-27T23:58:50.690Z,9.30
